SCEL 160500Z 15006KT CAVOK 18/08 Q1015 NOSIG